Etusivu
METAR-TAF:

METAR-TAF

Lentoasemat :

Cherbourg, Ranska

Leveyspiiri: 49-39N, Pituuspiiri: 001-28W, korkeus merenpinnasta: 138 m

Tämänhetkinen sää

Tämä raportti tehtiin 29 minuuttia sitten, kello 12.30 UTC
Tuuli 15 kn koillisesta, vaihdellen pohjoisen ja idän/koillisen välillä
Lämpötila 7°C
Kosteus 66%
Ilmanpaine 1031 hPa
Näkyvyys 10 km tai enemmän
Hajonneita pilviä 2600 ft:n korkeudessa
Hajonneita pilviä 3300 ft:n korkeudessa

METAR: LFRC 301230Z AUTO 04015KT 360V060 9999 BKN026 BKN033 07/01 Q1031

Aika: 14:59 (12:59 UTC)


TAF: puuttuu

Säähavainnot ja -ennusteet yli 4000 lentoasemalta (METAR- ja TAF-raportit).

Käytössä olevat sääasemat on merkitty karttaan keltaisilla ja punaisilla pisteillä.

Aseta hiiri pisteen päälle nähdäksesi sääaseman nimen.

Klikkaa sitten nähdäksesi säähavainnot ja -ennusteet.

Kartan vaihtaminen: klikkaa mustalla rastilla varustettuja vihreitä pisteitä, niin voit zoomata sisään; viivalla varustettua vihreää pistettä, niin voit zoomata ulos tai vihreitä nuolia, niin pääset viereisille kartoille.


METAR-TAF: